createdAt,value
2023-01-10T00:02:25.758Z,98446.56
2023-01-10T00:04:53.513Z,98455.03
2023-01-10T00:07:22.634Z,98457.59
2023-01-10T00:09:50.322Z,98461.81
2023-01-10T00:12:36.012Z,98463.56
2023-01-10T00:15:03.698Z,98474.28
2023-01-10T00:17:31.368Z,98470.13
2023-01-10T00:19:59.129Z,98480.59
2023-01-10T00:22:28.190Z,98481.50
2023-01-10T00:24:55.888Z,98489.81
2023-01-10T00:27:26.729Z,98492.22
2023-01-10T00:29:54.589Z,98506.06
2023-01-10T00:32:23.036Z,98496.88
2023-01-10T00:34:50.816Z,98510.38
2023-01-10T00:37:18.573Z,98509.91
2023-01-10T00:39:47.668Z,98514.72
2023-01-10T00:42:32.940Z,98521.44
2023-01-10T00:45:00.693Z,98538.13
2023-01-10T00:47:28.454Z,98542.66
2023-01-10T00:49:56.275Z,98540.22
2023-01-10T00:52:24.040Z,98545.78
2023-01-10T00:54:53.575Z,98552.56
2023-01-10T00:57:21.353Z,98562.03
2023-01-10T00:59:49.179Z,98565.38
2023-01-10T01:02:16.995Z,98570.03
2023-01-10T01:04:44.802Z,98568.09
2023-01-10T01:07:12.606Z,98582.19
2023-01-10T01:10:00.581Z,98590.25
2023-01-10T01:12:29.724Z,98591.22
2023-01-10T01:14:58.259Z,98603.38
2023-01-10T01:17:26.034Z,98600.81
2023-01-10T01:19:53.791Z,98608.81
2023-01-10T01:22:21.670Z,98607.69
2023-01-10T01:24:49.481Z,98623.25
2023-01-10T01:27:17.201Z,98632.94
2023-01-10T01:29:46.311Z,98633.19
2023-01-10T01:32:16.430Z,98641.81
2023-01-10T01:34:44.222Z,98654.50
2023-01-10T01:37:11.940Z,98661.75
2023-01-10T01:39:39.666Z,98662.06
2023-01-10T01:42:07.935Z,98675.06
2023-01-10T01:44:40.358Z,98674.09
2023-01-10T01:47:18.487Z,98685.81
2023-01-10T01:49:46.869Z,98696.56
2023-01-10T01:52:22.690Z,98697.50
2023-01-10T01:54:50.792Z,98700.72
2023-01-10T01:57:22.570Z,98701.97
2023-01-10T01:59:54.759Z,98707.91
2023-01-10T02:02:27.867Z,98712.22
2023-01-10T02:04:58.701Z,98722.19
2023-01-10T02:07:29.921Z,98723.31
2023-01-10T02:10:02.389Z,98725.84
2023-01-10T02:12:31.869Z,98739.44
2023-01-10T02:15:00.655Z,98739.19
2023-01-10T02:17:29.768Z,98742.19
2023-01-10T02:20:00.354Z,98741.69
2023-01-10T02:23:10.529Z,98738.94
2023-01-10T02:26:07.054Z,98741.25
2023-01-10T02:29:04.758Z,98758.25
2023-01-10T02:32:08.601Z,98757.75
2023-01-10T02:34:48.991Z,98759.34
2023-01-10T02:37:21.100Z,98755.00
2023-01-10T02:39:56.264Z,98760.22
2023-01-10T02:42:30.637Z,98768.22
2023-01-10T02:45:04.550Z,98777.41
2023-01-10T02:47:36.566Z,98779.69
2023-01-10T02:50:29.125Z,98775.75
2023-01-10T02:53:00.686Z,98780.66
2023-01-10T02:55:44.403Z,98788.59
2023-01-10T02:58:26.152Z,98790.41
2023-01-10T03:01:01.519Z,98793.63
2023-01-10T03:03:41.891Z,98797.78
2023-01-10T03:06:23.019Z,98812.09
2023-01-10T03:08:56.933Z,98819.41
2023-01-10T03:11:40.926Z,98825.13
2023-01-10T03:14:16.176Z,98828.38
2023-01-10T03:16:49.128Z,98831.00
2023-01-10T03:19:20.023Z,98836.72
2023-01-10T03:21:53.635Z,98838.34
2023-01-10T03:24:29.774Z,98847.94
2023-01-10T03:27:03.134Z,98853.97
2023-01-10T03:29:38.100Z,98854.00
2023-01-10T03:32:08.830Z,98868.91
2023-01-10T03:34:37.322Z,98878.28
2023-01-10T03:37:14.207Z,98884.03
2023-01-10T03:39:51.462Z,98885.16
2023-01-10T03:42:26.990Z,98885.16
2023-01-10T03:45:01.956Z,98887.41
2023-01-10T03:47:35.902Z,98889.13
2023-01-10T03:50:08.284Z,98886.41
2023-01-10T03:52:38.510Z,98887.13
2023-01-10T03:55:08.336Z,98897.09
2023-01-10T03:57:36.089Z,98898.94
2023-01-10T04:00:04.992Z,98900.09
2023-01-10T04:02:33.549Z,98907.53
2023-01-10T04:05:01.385Z,98915.16
2023-01-10T04:07:29.213Z,98913.03
2023-01-10T04:09:58.641Z,98913.69
2023-01-10T04:12:26.587Z,98926.09
2023-01-10T04:14:54.260Z,98918.13
2023-01-10T04:17:21.976Z,98927.91
2023-01-10T04:19:49.661Z,98922.78
2023-01-10T04:22:17.530Z,98926.91
2023-01-10T04:24:47.095Z,98944.34
2023-01-10T04:27:16.279Z,98936.78
2023-01-10T04:29:44.144Z,98945.59
2023-01-10T04:32:11.844Z,98962.75
2023-01-10T04:34:39.678Z,98976.25
2023-01-10T04:37:07.323Z,98976.22
2023-01-10T04:39:35.069Z,98986.81
2023-01-10T04:42:02.912Z,99016.75
2023-01-10T04:44:32.421Z,99001.09
2023-01-10T04:47:00.140Z,99006.06
2023-01-10T04:49:28.007Z,99009.00
2023-01-10T04:51:55.714Z,99010.22
2023-01-10T04:54:24.331Z,99023.47
2023-01-10T04:56:52.048Z,99029.84
2023-01-10T04:59:20.093Z,99025.28
2023-01-10T05:01:49.652Z,99021.63
2023-01-10T05:04:19.436Z,99021.84
2023-01-10T05:06:49.344Z,99028.56
2023-01-10T05:09:17.133Z,99037.09
2023-01-10T05:11:44.931Z,99036.47
2023-01-10T05:14:12.673Z,99050.19
2023-01-10T05:16:40.479Z,99048.13
2023-01-10T05:19:09.816Z,99067.44
2023-01-10T05:21:37.615Z,99069.06
2023-01-10T05:24:07.377Z,99070.00
2023-01-10T05:26:35.090Z,99080.00
2023-01-10T05:29:02.834Z,99083.06
2023-01-10T05:31:30.707Z,99088.69
2023-01-10T05:33:58.439Z,99093.28
2023-01-10T05:36:27.562Z,99096.56
2023-01-10T05:38:55.354Z,99096.63
2023-01-10T05:41:23.552Z,99089.53
2023-01-10T05:43:51.313Z,99091.09
2023-01-10T05:46:25.419Z,99109.75
2023-01-10T05:48:53.464Z,99107.09
2023-01-10T05:51:21.277Z,99113.09
2023-01-10T05:53:50.435Z,99116.72
2023-01-10T05:56:18.266Z,99113.78
2023-01-10T05:58:47.355Z,99117.16
2023-01-10T06:01:15.269Z,99126.88
2023-01-10T06:03:43.069Z,99113.44
2023-01-10T06:06:11.044Z,99111.94
2023-01-10T06:08:38.948Z,99116.28
2023-01-10T06:11:08.711Z,99118.69
2023-01-10T06:13:36.464Z,99123.44
2023-01-10T06:16:04.859Z,99126.97
2023-01-10T06:18:32.563Z,99131.00
2023-01-10T06:21:00.287Z,99129.78
2023-01-10T06:23:30.283Z,99131.31
2023-01-10T06:25:58.375Z,99130.59
2023-01-10T06:28:27.465Z,99140.50
2023-01-10T06:30:55.234Z,99148.84
2023-01-10T06:33:22.950Z,99154.00
2023-01-10T06:35:50.730Z,99168.84
2023-01-10T06:38:18.475Z,99167.31
2023-01-10T06:40:46.337Z,99174.63
2023-01-10T06:43:14.064Z,99175.00
2023-01-10T06:45:43.981Z,99196.22
2023-01-10T06:48:14.478Z,99195.84
2023-01-10T06:50:42.230Z,99192.69
2023-01-10T06:53:12.535Z,99191.69
2023-01-10T06:55:40.407Z,99200.38
2023-01-10T06:58:08.334Z,99220.31
2023-01-10T07:00:36.119Z,99208.59
2023-01-10T07:03:05.403Z,99218.44
2023-01-10T07:05:34.798Z,99214.97
2023-01-10T07:08:02.518Z,99222.56
2023-01-10T07:10:30.356Z,99213.16
2023-01-10T07:12:59.486Z,99229.22
2023-01-10T07:15:28.037Z,99240.63
2023-01-10T07:17:57.844Z,99241.13
2023-01-10T07:20:27.835Z,99230.28
2023-01-10T07:22:56.082Z,99240.78
2023-01-10T07:25:24.171Z,99242.13
2023-01-10T07:27:51.967Z,99239.22
2023-01-10T07:30:19.942Z,99231.84
2023-01-10T07:32:53.421Z,99221.03
2023-01-10T07:35:21.267Z,99225.63
2023-01-10T07:37:50.433Z,99236.47
2023-01-10T07:40:18.913Z,99249.59
2023-01-10T07:42:46.662Z,99260.81
2023-01-10T07:45:14.636Z,99273.53
2023-01-10T07:47:42.463Z,99281.91
2023-01-10T07:50:11.173Z,99289.19
2023-01-10T07:52:39.357Z,99288.75
2023-01-10T07:55:09.628Z,99297.03
2023-01-10T07:57:37.592Z,99308.44
2023-01-10T08:00:05.915Z,99308.97
2023-01-10T08:02:33.733Z,99313.19
2023-01-10T08:05:01.523Z,99307.53
2023-01-10T08:07:30.231Z,99329.03
2023-01-10T08:09:57.986Z,99315.31
2023-01-10T08:12:27.141Z,99315.69
2023-01-10T08:14:54.917Z,99329.97
2023-01-10T08:17:23.134Z,99338.50
2023-01-10T08:19:50.904Z,99346.59
2023-01-10T08:22:19.028Z,99346.22
2023-01-10T08:24:46.784Z,99337.31
2023-01-10T08:27:14.673Z,99342.84
2023-01-10T08:29:43.847Z,99358.31
2023-01-10T08:32:12.317Z,99358.41
2023-01-10T08:34:40.411Z,99358.94
2023-01-10T08:37:11.239Z,99351.88
2023-01-10T08:39:39.412Z,99347.50
2023-01-10T08:42:07.291Z,99349.16
2023-01-10T08:44:35.257Z,99339.22
2023-01-10T08:47:04.529Z,99345.78
2023-01-10T08:49:32.371Z,99342.75
2023-01-10T08:52:00.115Z,99357.94
2023-01-10T08:54:28.146Z,99366.00
2023-01-10T08:56:55.905Z,99360.97
2023-01-10T08:59:23.721Z,99359.41
2023-01-10T09:01:51.680Z,99368.31
2023-01-10T09:04:20.870Z,99372.66
2023-01-10T09:06:48.683Z,99364.66
2023-01-10T09:09:16.799Z,99365.78
2023-01-10T09:11:44.590Z,99363.38
2023-01-10T09:14:12.388Z,99365.41
2023-01-10T09:16:40.161Z,99369.03
2023-01-10T09:19:07.936Z,99363.84
2023-01-10T09:21:37.094Z,99371.13
2023-01-10T09:24:05.183Z,99363.34
2023-01-10T09:26:32.930Z,99374.19
2023-01-10T09:29:00.740Z,99382.34
2023-01-10T09:31:28.660Z,99384.44
2023-01-10T09:33:56.882Z,99386.25
2023-01-10T09:36:24.599Z,99389.00
2023-01-10T09:38:53.758Z,99393.50
2023-01-10T09:41:35.600Z,99403.63
2023-01-10T09:44:06.545Z,99410.94
2023-01-10T09:46:49.436Z,99407.16
2023-01-10T09:49:30.482Z,99422.25
2023-01-10T09:51:59.489Z,99424.34
2023-01-10T09:54:32.730Z,99434.88
2023-01-10T09:57:02.398Z,99435.91
2023-01-10T09:59:37.957Z,99440.34
2023-01-10T10:02:16.325Z,99434.53
2023-01-10T10:04:52.175Z,99439.59
2023-01-10T10:07:20.457Z,99434.53
2023-01-10T10:09:49.661Z,99432.59
2023-01-10T10:12:28.475Z,99436.75
2023-01-10T10:15:10.480Z,99429.59
2023-01-10T10:17:45.722Z,99435.03
2023-01-10T10:20:24.126Z,99423.16
2023-01-10T10:23:01.132Z,99435.44
2023-01-10T10:25:44.811Z,99432.59
2023-01-10T10:28:39.187Z,99431.00
2023-01-10T10:31:21.749Z,99431.59
2023-01-10T10:34:01.638Z,99428.16
2023-01-10T10:36:38.587Z,99427.44
2023-01-10T10:39:09.691Z,99418.03
2023-01-10T10:41:42.299Z,99418.03
2023-01-10T10:44:33.073Z,99415.38
2023-01-10T10:47:01.800Z,99411.91
2023-01-10T10:49:39.438Z,99409.09
2023-01-10T10:52:16.980Z,99408.28
2023-01-10T10:54:46.973Z,99401.41
2023-01-10T10:57:17.234Z,99403.94
2023-01-10T10:59:48.658Z,99410.41
2023-01-10T11:02:26.472Z,99410.84
2023-01-10T11:04:59.593Z,99404.69
2023-01-10T11:07:30.688Z,99401.22
2023-01-10T11:10:31.178Z,99405.69
2023-01-10T11:13:01.740Z,99393.38
2023-01-10T11:15:38.742Z,99409.38
2023-01-10T11:18:08.652Z,99394.72
2023-01-10T11:20:36.574Z,99395.28
2023-01-10T11:23:05.673Z,99405.97
2023-01-10T11:25:33.404Z,99402.13
2023-01-10T11:28:02.643Z,99409.47
2023-01-10T11:30:33.044Z,99417.16
2023-01-10T11:33:03.103Z,99426.59
2023-01-10T11:35:33.733Z,99421.94
2023-01-10T11:38:03.732Z,99417.31
2023-01-10T11:40:32.807Z,99415.84
2023-01-10T11:43:22.131Z,99403.94
2023-01-10T11:45:55.067Z,99413.16
2023-01-10T11:48:53.159Z,99408.84
2023-01-10T11:51:23.819Z,99405.53
2023-01-10T11:53:58.788Z,99402.34
2023-01-10T11:56:30.326Z,99405.06
2023-01-10T11:59:09.069Z,99393.59
2023-01-10T12:01:41.327Z,99397.69
2023-01-10T12:04:15.584Z,99399.34
2023-01-10T12:06:45.847Z,99407.13
2023-01-10T12:09:36.241Z,99395.78
2023-01-10T12:12:05.787Z,99388.94
2023-01-10T12:14:36.012Z,99380.78
2023-01-10T12:17:04.770Z,99381.28
2023-01-10T12:19:32.603Z,99379.66
2023-01-10T12:22:03.958Z,99375.09
2023-01-10T12:24:35.887Z,99371.63
2023-01-10T12:27:04.855Z,99363.78
2023-01-10T12:29:36.579Z,99369.72
2023-01-10T12:32:07.931Z,99353.34
2023-01-10T12:34:43.347Z,99367.94
2023-01-10T12:37:20.219Z,99366.88
2023-01-10T12:39:52.204Z,99361.06
2023-01-10T12:42:45.272Z,99356.72
2023-01-10T12:45:20.660Z,99347.53
2023-01-10T12:48:00.241Z,99356.41
2023-01-10T12:50:32.580Z,99353.94
2023-01-10T12:53:04.285Z,99350.13
2023-01-10T12:55:37.300Z,99341.25
2023-01-10T12:58:06.606Z,99344.66
2023-01-10T13:00:48.107Z,99351.06
2023-01-10T13:03:20.880Z,99350.44
2023-01-10T13:05:50.709Z,99347.56
2023-01-10T13:08:22.532Z,99340.31
2023-01-10T13:10:53.578Z,99342.03
2023-01-10T13:13:31.319Z,99336.56
2023-01-10T13:16:16.004Z,99329.31
2023-01-10T13:19:01.201Z,99335.25
2023-01-10T13:21:29.690Z,99344.50
2023-01-10T13:24:01.888Z,99330.94
2023-01-10T13:26:47.876Z,99337.69
2023-01-10T13:29:20.701Z,99337.56
2023-01-10T13:31:57.043Z,99330.59
2023-01-10T13:34:27.931Z,99329.81
2023-01-10T13:36:59.261Z,99327.06
2023-01-10T13:39:32.768Z,99321.69
2023-01-10T13:42:50.424Z,99325.47
2023-01-10T13:45:26.561Z,99323.22
2023-01-10T13:48:24.178Z,99328.03
2023-01-10T13:50:58.702Z,99340.44
2023-01-10T13:53:56.054Z,99325.13
2023-01-10T13:56:36.085Z,99337.53
2023-01-10T13:59:24.097Z,99343.50
2023-01-10T14:02:11.555Z,99340.34
2023-01-10T14:04:48.168Z,99328.84
2023-01-10T14:07:23.213Z,99337.69
2023-01-10T14:09:52.465Z,99342.78
2023-01-10T14:12:24.664Z,99340.00
2023-01-10T14:14:57.341Z,99349.84
2023-01-10T14:17:28.118Z,99353.53
2023-01-10T14:20:05.702Z,99347.78
2023-01-10T14:22:35.986Z,99344.78
2023-01-10T14:25:06.678Z,99341.75
2023-01-10T14:27:44.749Z,99349.94
2023-01-10T14:30:19.503Z,99344.47
2023-01-10T14:32:51.253Z,99340.13
2023-01-10T14:35:23.022Z,99343.94
2023-01-10T14:37:55.553Z,99343.06
2023-01-10T14:40:28.485Z,99341.78
2023-01-10T14:43:00.064Z,99333.97
2023-01-10T14:45:34.620Z,99336.44
2023-01-10T14:48:18.441Z,99328.53
2023-01-10T14:50:47.557Z,99318.38
2023-01-10T14:53:26.731Z,99313.59
2023-01-10T14:55:54.594Z,99317.69
2023-01-10T14:58:22.855Z,99313.97
2023-01-10T15:00:52.380Z,99314.09
2023-01-10T15:03:22.240Z,99314.31
2023-01-10T15:05:54.184Z,99307.25
2023-01-10T15:08:24.197Z,99296.94
2023-01-10T15:10:54.284Z,99298.56
2023-01-10T15:13:26.334Z,99290.94
2023-01-10T15:15:54.657Z,99283.28
2023-01-10T15:18:37.926Z,99275.53
2023-01-10T15:21:07.964Z,99286.16
2023-01-10T15:23:37.285Z,99274.72
2023-01-10T15:26:09.729Z,99281.31
2023-01-10T15:28:38.197Z,99275.47
2023-01-10T15:31:08.503Z,99281.28
2023-01-10T15:33:38.826Z,99284.09
2023-01-10T15:36:13.663Z,99280.22
2023-01-10T15:38:45.481Z,99260.69
2023-01-10T15:41:19.699Z,99266.31
2023-01-10T15:43:49.911Z,99265.22
2023-01-10T15:46:22.999Z,99264.31
2023-01-10T15:49:00.440Z,99248.13
2023-01-10T15:51:34.050Z,99260.81
2023-01-10T15:54:07.232Z,99260.69
2023-01-10T15:56:37.980Z,99256.44
2023-01-10T15:59:21.167Z,99260.75
2023-01-10T16:01:54.661Z,99258.00
2023-01-10T16:04:22.806Z,99260.59
2023-01-10T16:07:05.925Z,99249.75
2023-01-10T16:09:33.992Z,99253.47
2023-01-10T16:12:19.320Z,99254.13
2023-01-10T16:14:47.018Z,99247.91
2023-01-10T16:17:14.851Z,99256.28
2023-01-10T16:19:42.615Z,99258.63
2023-01-10T16:22:19.250Z,99249.00
2023-01-10T16:24:48.241Z,99253.81
2023-01-10T16:27:16.169Z,99256.25
2023-01-10T16:29:44.511Z,99251.50
2023-01-10T16:32:15.296Z,99247.03
2023-01-10T16:34:43.893Z,99252.50
2023-01-10T16:37:13.121Z,99238.84
2023-01-10T16:39:40.819Z,99233.56
2023-01-10T16:42:27.946Z,99234.34
2023-01-10T16:44:58.697Z,99229.53
2023-01-10T16:47:26.465Z,99228.78
2023-01-10T16:49:54.371Z,99231.28
2023-01-10T16:52:23.440Z,99227.81
2023-01-10T16:54:51.174Z,99228.28
2023-01-10T16:57:18.907Z,99226.38
2023-01-10T16:59:46.648Z,99235.09
2023-01-10T17:02:18.849Z,99234.78
2023-01-10T17:04:46.710Z,99234.22
2023-01-10T17:07:14.413Z,99232.69
2023-01-10T17:09:43.829Z,99224.69
2023-01-10T17:12:19.331Z,99212.34
2023-01-10T17:14:48.166Z,99218.81
2023-01-10T17:17:16.183Z,99217.59
2023-01-10T17:19:44.643Z,99213.13
2023-01-10T17:22:12.417Z,99213.56
2023-01-10T17:24:40.295Z,99211.69
2023-01-10T17:27:09.420Z,99201.94
2023-01-10T17:29:37.454Z,99191.81
2023-01-10T17:32:05.682Z,99193.59
2023-01-10T17:34:38.299Z,99207.25
2023-01-10T17:37:06.778Z,99212.59
2023-01-10T17:39:37.546Z,99206.88
2023-01-10T17:42:08.951Z,99210.94
2023-01-10T17:44:38.160Z,99203.81
2023-01-10T17:47:06.000Z,99202.03
2023-01-10T17:49:34.801Z,99195.59
2023-01-10T17:52:02.717Z,99198.88
2023-01-10T17:54:30.574Z,99190.66
2023-01-10T17:56:58.354Z,99180.72
2023-01-10T17:59:26.111Z,99184.44
2023-01-10T18:01:55.387Z,99185.34
2023-01-10T18:04:23.277Z,99196.63
2023-01-10T18:06:52.258Z,99186.50
2023-01-10T18:09:20.288Z,99189.22
2023-01-10T18:11:48.172Z,99173.94
2023-01-10T18:14:33.678Z,99167.38
2023-01-10T18:17:03.095Z,99174.09
2023-01-10T18:19:31.003Z,99164.94
2023-01-10T18:21:58.769Z,99163.91
2023-01-10T18:24:26.538Z,99168.81
2023-01-10T18:26:54.304Z,99161.06
2023-01-10T18:29:22.232Z,99162.53
2023-01-10T18:31:50.071Z,99150.91
2023-01-10T18:34:19.345Z,99147.25
2023-01-10T18:36:47.146Z,99147.22
2023-01-10T18:39:14.947Z,99147.19
2023-01-10T18:41:42.745Z,99146.19
2023-01-10T18:44:10.742Z,99131.63
2023-01-10T18:46:38.479Z,99133.75
2023-01-10T18:49:06.442Z,99134.34
2023-01-10T18:51:38.388Z,99145.41
2023-01-10T18:54:06.821Z,99140.72
2023-01-10T18:56:34.723Z,99131.63
2023-01-10T18:59:02.497Z,99116.50
2023-01-10T19:01:30.471Z,99104.94
2023-01-10T19:03:58.721Z,99105.56
2023-01-10T19:06:26.397Z,99097.19
2023-01-10T19:08:55.552Z,99107.00
2023-01-10T19:11:23.413Z,99103.13
2023-01-10T19:13:53.869Z,99108.00
2023-01-10T19:16:26.610Z,99112.91
2023-01-10T19:18:56.516Z,99113.22
2023-01-10T19:21:25.807Z,99103.00
2023-01-10T19:24:00.987Z,99101.50
2023-01-10T19:26:28.959Z,99106.03
2023-01-10T19:28:56.789Z,99112.91
2023-01-10T19:31:26.495Z,99107.50
2023-01-10T19:33:55.159Z,99102.28
2023-01-10T19:36:24.370Z,99107.47
2023-01-10T19:38:56.869Z,99100.59
2023-01-10T19:41:25.285Z,99095.75
2023-01-10T19:43:57.119Z,99092.22
2023-01-10T19:46:25.681Z,99101.06
2023-01-10T19:48:56.635Z,99099.13
2023-01-10T19:51:24.729Z,99087.06
2023-01-10T19:53:52.441Z,99085.44
2023-01-10T19:56:22.824Z,99079.50
2023-01-10T19:58:51.735Z,99091.41
2023-01-10T20:01:21.304Z,99078.88
2023-01-10T20:03:49.116Z,99080.16
2023-01-10T20:06:20.215Z,99095.72
2023-01-10T20:08:48.989Z,99089.97
2023-01-10T20:11:18.311Z,99092.38
2023-01-10T20:13:49.225Z,99090.78
2023-01-10T20:16:19.105Z,99083.06
2023-01-10T20:18:47.789Z,99090.78
2023-01-10T20:21:18.274Z,99089.47
2023-01-10T20:23:47.648Z,99083.38
2023-01-10T20:26:18.397Z,99084.97
2023-01-10T20:28:48.462Z,99082.06
2023-01-10T20:31:18.602Z,99084.78
2023-01-10T20:33:46.525Z,99086.72
2023-01-10T20:36:16.829Z,99085.09
2023-01-10T20:38:44.944Z,99087.38
2023-01-10T20:41:14.556Z,99081.75
2023-01-10T20:43:42.792Z,99079.63
2023-01-10T20:46:14.198Z,99083.69
2023-01-10T20:48:43.159Z,99083.84
2023-01-10T20:51:13.929Z,99074.53
2023-01-10T20:53:41.655Z,99067.78
2023-01-10T20:56:13.468Z,99067.94
2023-01-10T20:58:41.656Z,99062.31
2023-01-10T21:01:12.449Z,99052.31
2023-01-10T21:03:44.198Z,99052.81
2023-01-10T21:06:13.127Z,99050.53
2023-01-10T21:08:41.056Z,99050.91
2023-01-10T21:11:11.570Z,99051.06
2023-01-10T21:13:39.605Z,99042.84
2023-01-10T21:16:08.725Z,99044.75
2023-01-10T21:18:41.040Z,99038.03
2023-01-10T21:21:11.040Z,99043.00
2023-01-10T21:23:38.843Z,99034.97
2023-01-10T21:26:08.560Z,99035.75
2023-01-10T21:28:38.486Z,99038.84
2023-01-10T21:31:06.856Z,99032.41
2023-01-10T21:33:34.754Z,99032.88
2023-01-10T21:36:04.221Z,99031.59
2023-01-10T21:38:32.754Z,99033.84
2023-01-10T21:41:08.029Z,99025.59
2023-01-10T21:43:36.141Z,99029.19
2023-01-10T21:46:04.069Z,99025.31
2023-01-10T21:48:35.540Z,99025.16
2023-01-10T21:51:09.310Z,99022.41
2023-01-10T21:53:37.057Z,99020.97
2023-01-10T21:56:05.355Z,99020.81
2023-01-10T21:58:39.463Z,99022.44
2023-01-10T22:01:07.281Z,99015.19
2023-01-10T22:03:37.225Z,99017.44
2023-01-10T22:06:06.926Z,99016.97
2023-01-10T22:08:36.230Z,99018.88
2023-01-10T22:11:07.250Z,99015.53
2023-01-10T22:13:35.869Z,99013.28
2023-01-10T22:16:05.772Z,99006.38
2023-01-10T22:18:33.878Z,99013.28
2023-01-10T22:21:01.629Z,99010.38
2023-01-10T22:23:31.497Z,99006.47
2023-01-10T22:26:02.177Z,98999.28
2023-01-10T22:28:30.209Z,99002.19
2023-01-10T22:30:58.538Z,99006.34
2023-01-10T22:33:29.329Z,98996.97
2023-01-10T22:36:08.351Z,98999.09
2023-01-10T22:38:37.645Z,99008.59
2023-01-10T22:41:08.984Z,98994.22
2023-01-10T22:43:38.663Z,98984.13
2023-01-10T22:46:09.563Z,98979.97
2023-01-10T22:48:38.302Z,98982.41
2023-01-10T22:51:06.359Z,98986.06
2023-01-10T22:53:40.717Z,98994.44
2023-01-10T22:56:10.530Z,98979.31
2023-01-10T22:58:39.091Z,98981.03
2023-01-10T23:01:08.348Z,98967.72
2023-01-10T23:03:36.327Z,98973.19
2023-01-10T23:06:04.183Z,98960.34
2023-01-10T23:08:31.956Z,98963.03
2023-01-10T23:11:01.346Z,98957.91
2023-01-10T23:13:31.590Z,98951.66
2023-01-10T23:16:00.615Z,98939.41
2023-01-10T23:18:29.149Z,98936.81
2023-01-10T23:20:57.441Z,98940.09
2023-01-10T23:23:26.205Z,98939.75
2023-01-10T23:26:02.492Z,98944.50
2023-01-10T23:28:32.804Z,98943.84
2023-01-10T23:31:00.945Z,98933.91
2023-01-10T23:33:28.817Z,98933.31
2023-01-10T23:35:56.445Z,98925.94
2023-01-10T23:38:25.520Z,98926.94
2023-01-10T23:40:53.580Z,98926.63
2023-01-10T23:43:21.687Z,98924.69
2023-01-10T23:45:51.026Z,98929.66
2023-01-10T23:48:18.987Z,98918.22
2023-01-10T23:50:51.662Z,98933.19
2023-01-10T23:53:20.045Z,98930.25
2023-01-10T23:55:47.886Z,98916.44
2023-01-10T23:58:17.036Z,98912.38
